Time;durP1;ratioP1;P1;durP2;ratioP2;P2;SDS_P1;SDS_P2;PMS_P1;PMS_P2;Temp;Humidity;BMP_temperature;BMP_pressure;BME280_temperature;BME280_humidity;BME280_pressure;Samples;Min_cycle;Max_cycle;Signal;HPM_P1;HPM_P2
2023/01/11 00:00:20;;;;;;;2.43;1.10;;;;;;;4.30;90.12;95620.53;4928164;29;20225;-79
2023/01/11 00:02:47;;;;;;;3.70;1.37;;;;;;;4.35;90.58;95626.19;4922289;29;20192;-79
2023/01/11 00:05:12;;;;;;;3.40;1.27;;;;;;;4.25;91.78;95624.28;4920198;29;20277;-79
2023/01/11 00:07:39;;;;;;;4.70;1.30;;;;;;;4.31;91.66;95620.44;4941655;29;20288;-79
2023/01/11 00:10:06;;;;;;;4.00;1.10;;;;;;;4.35;91.86;95621.88;4920810;29;20241;-80
2023/01/11 00:12:31;;;;;;;4.17;1.10;;;;;;;4.26;91.86;95618.19;4925241;29;20207;-79
2023/01/11 00:14:56;;;;;;;3.97;1.00;;;;;;;4.25;92.94;95616.56;4920401;29;20200;-78
2023/01/11 00:17:21;;;;;;;2.03;1.23;;;;;;;4.31;92.34;95614.47;4942886;29;20727;-79
2023/01/11 00:19:47;;;;;;;4.03;1.10;;;;;;;4.31;90.81;95606.75;4924747;28;20221;-79
2023/01/11 00:22:12;;;;;;;2.90;1.40;;;;;;;4.28;90.30;95609.56;4935849;29;20202;-79
2023/01/11 00:24:37;;;;;;;3.70;1.40;;;;;;;4.30;90.35;95598.22;4925267;29;20666;-78
2023/01/11 00:27:03;;;;;;;3.27;1.40;;;;;;;4.26;90.36;95600.19;4923862;29;20190;-79
2023/01/11 00:29:28;;;;;;;3.30;1.30;;;;;;;4.12;90.33;95600.34;4935842;29;20232;-79
2023/01/11 00:31:53;;;;;;;4.97;1.20;;;;;;;4.21;89.95;95594.53;4938870;29;20198;-78
2023/01/11 00:34:19;;;;;;;2.80;1.27;;;;;;;4.09;90.63;95594.59;4925173;29;20205;-78
2023/01/11 00:36:44;;;;;;;1.40;1.20;;;;;;;4.04;90.39;95591.50;4920461;29;20194;-79
2023/01/11 00:39:09;;;;;;;2.17;0.90;;;;;;;4.02;90.50;95590.81;4917621;29;20602;-79
2023/01/11 00:49:47;;;;;;;2.47;1.10;;;;;;;4.07;91.18;95581.03;4924750;29;20307;-78
2023/01/11 00:52:12;;;;;;;2.40;1.10;;;;;;;4.19;90.45;95575.03;4942435;29;20624;-79
2023/01/11 00:54:38;;;;;;;4.80;1.50;;;;;;;4.26;90.35;95577.06;4935950;28;20643;-80
2023/01/11 00:57:06;;;;;;;1.87;1.37;;;;;;;4.16;91.12;95573.50;4937969;29;20790;-79
2023/01/11 00:59:31;;;;;;;2.43;1.30;;;;;;;4.21;91.02;95578.31;4916838;29;20213;-80
2023/01/11 01:01:56;;;;;;;3.30;1.70;;;;;;;4.33;90.88;95574.03;4931186;29;20197;-78
2023/01/11 01:04:22;;;;;;;2.43;1.17;;;;;;;4.47;90.70;95574.72;4930884;29;20606;-80
2023/01/11 01:06:47;;;;;;;2.83;1.20;;;;;;;4.49;90.42;95564.31;4938867;29;20799;-80
2023/01/11 01:09:12;;;;;;;3.40;1.33;;;;;;;4.54;90.00;95573.34;4926637;29;20340;-79
2023/01/11 01:11:38;;;;;;;1.73;1.10;;;;;;;4.48;90.23;95562.66;4922979;29;20265;-80
2023/01/11 01:16:48;;;;;;;1.20;0.90;;;;;;;4.54;90.47;95562.25;4928094;29;20193;-79
2023/01/11 01:19:13;;;;;;;2.00;1.30;;;;;;;4.51;90.65;95565.03;4933036;29;20216;-79
2023/01/11 01:21:39;;;;;;;3.33;1.10;;;;;;;4.59;90.04;95562.72;4915035;29;20677;-78
2023/01/11 01:24:08;;;;;;;1.97;0.90;;;;;;;4.49;90.96;95554.03;4932109;29;20197;-77
2023/01/11 01:26:33;;;;;;;2.80;1.10;;;;;;;4.48;91.46;95547.25;4914302;29;20572;-79
2023/01/11 01:28:58;;;;;;;1.10;0.90;;;;;;;4.45;91.88;95565.47;4919034;29;20227;-78
2023/01/11 01:31:24;;;;;;;2.10;1.03;;;;;;;4.50;92.00;95569.34;4921667;29;20211;-79
2023/01/11 01:33:49;;;;;;;4.27;1.40;;;;;;;4.53;92.07;95565.75;4942086;29;20197;-79
2023/01/11 01:36:14;;;;;;;3.93;0.97;;;;;;;4.44;92.74;95556.13;4917066;29;20213;-78
2023/01/11 01:38:40;;;;;;;3.60;1.27;;;;;;;4.49;93.05;95552.25;4918739;29;20220;-79
2023/01/11 01:41:05;;;;;;;1.27;0.80;;;;;;;4.52;92.58;95546.94;4937651;29;20198;-79
2023/01/11 01:43:55;;;;;;;3.23;1.30;;;;;;;4.44;93.76;95543.25;4926416;29;20614;-78
2023/01/11 01:46:23;;;;;;;4.97;1.30;;;;;;;4.44;94.13;95546.66;4929693;29;20190;-78
2023/01/11 01:49:15;;;;;;;3.00;1.23;;;;;;;4.48;94.75;95552.38;4906412;29;20304;-79
2023/01/11 01:51:46;;;;;;;5.13;1.47;;;;;;;4.50;94.73;95546.19;4923221;29;20599;-79
2023/01/11 01:54:16;;;;;;;2.73;1.07;;;;;;;4.64;94.49;95550.34;4937438;29;20281;-79
2023/01/11 01:56:45;;;;;;;1.63;1.10;;;;;;;4.67;94.22;95546.72;4940610;29;20658;-78
2023/01/11 01:59:12;;;;;;;1.07;0.90;;;;;;;4.62;94.46;95538.53;4922335;29;20312;-79
2023/01/11 02:01:47;;;;;;;1.83;1.23;;;;;;;4.68;93.78;95535.50;4935734;29;20532;-79
2023/01/11 02:04:40;;;;;;;1.73;1.00;;;;;;;4.74;93.33;95533.31;4919343;29;20281;-79
2023/01/11 02:07:28;;;;;;;2.17;1.20;;;;;;;4.48;94.08;95534.38;4908739;29;20431;-78
2023/01/11 02:10:09;;;;;;;2.63;1.20;;;;;;;4.48;94.15;95532.63;4926311;29;20217;-78
2023/01/11 02:12:42;;;;;;;2.83;1.10;;;;;;;4.46;93.64;95536.25;4920257;29;20276;-78
2023/01/11 02:15:09;;;;;;;3.90;1.23;;;;;;;4.44;93.68;95525.25;4930795;29;20295;-78
2023/01/11 02:17:34;;;;;;;2.60;1.13;;;;;;;4.54;92.62;95521.09;4916303;29;20201;-81
2023/01/11 02:20:02;;;;;;;5.17;1.40;;;;;;;4.50;93.24;95527.38;4920206;29;20217;-80
2023/01/11 02:23:03;;;;;;;2.37;1.10;;;;;;;4.50;92.97;95528.19;4920188;29;20280;-79
2023/01/11 02:25:57;;;;;;;2.63;1.10;;;;;;;4.45;93.40;95527.72;4923841;29;20219;-79
2023/01/11 02:29:03;;;;;;;1.90;1.10;;;;;;;4.59;93.08;95515.59;4919313;29;20263;-79
2023/01/11 02:31:44;;;;;;;4.87;1.37;;;;;;;4.59;93.33;95526.69;4931696;29;20194;-80
2023/01/11 02:34:21;;;;;;;2.70;1.40;;;;;;;4.66;92.81;95517.59;4925605;29;20193;-80
2023/01/11 02:36:54;;;;;;;3.70;1.40;;;;;;;4.64;93.10;95529.78;4918500;29;20194;-80
2023/01/11 02:39:33;;;;;;;1.83;1.00;;;;;;;4.65;92.87;95530.59;4919919;29;20223;-79
2023/01/11 02:45:27;;;;;;;1.73;1.17;;;;;;;4.75;93.38;95542.66;4932536;29;20239;-80
2023/01/11 02:48:11;;;;;;;2.97;0.90;;;;;;;4.81;92.75;95531.94;4923164;29;20657;-79
2023/01/11 02:50:45;;;;;;;3.70;0.80;;;;;;;4.84;92.71;95531.69;4939403;29;20206;-79
2023/01/11 02:53:27;;;;;;;1.73;1.20;;;;;;;4.88;93.13;95521.19;4918302;29;20611;-78
2023/01/11 02:56:01;;;;;;;2.20;1.27;;;;;;;4.87;92.60;95519.56;4932570;29;20222;-78
2023/01/11 02:58:29;;;;;;;2.90;1.03;;;;;;;4.83;92.50;95514.63;4938268;29;20217;-79
2023/01/11 03:00:56;;;;;;;1.97;1.53;;;;;;;4.78;92.94;95515.91;4913570;29;20197;-80
2023/01/11 03:03:23;;;;;;;4.03;1.13;;;;;;;4.72;92.78;95506.06;4933412;29;20196;-79
2023/01/11 03:06:11;;;;;;;2.93;1.33;;;;;;;4.72;93.93;95509.44;4920479;29;20193;-78
2023/01/11 03:08:58;;;;;;;3.57;1.40;;;;;;;4.78;93.74;95511.59;4923525;29;20211;-80
2023/01/11 03:14:46;;;;;;;1.60;0.93;;;;;;;4.91;93.14;95502.94;4920769;29;20216;-79
2023/01/11 03:17:22;;;;;;;1.60;0.90;;;;;;;5.01;93.19;95498.75;4927482;29;20209;-78
2023/01/11 03:19:52;;;;;;;1.17;0.90;;;;;;;4.87;94.19;95504.13;4922453;29;20223;-79
2023/01/11 03:22:27;;;;;;;4.47;1.47;;;;;;;4.93;94.09;95495.94;4938707;29;20689;-78
2023/01/11 03:25:10;;;;;;;2.80;0.87;;;;;;;4.86;94.23;95492.16;4931722;29;20208;-78
2023/01/11 03:27:49;;;;;;;2.67;1.00;;;;;;;4.98;93.76;95493.84;4935035;29;20201;-78
2023/01/11 03:30:48;;;;;;;3.07;1.00;;;;;;;4.86;95.37;95487.03;4921339;29;20268;-80
2023/01/11 03:33:21;;;;;;;2.30;0.80;;;;;;;4.93;94.83;95483.06;4928990;29;20259;-79
2023/01/11 03:35:48;;;;;;;4.03;1.37;;;;;;;4.89;95.46;95485.06;4934616;29;20185;-80
2023/01/11 03:38:41;;;;;;;1.03;0.83;;;;;;;4.91;96.12;95484.94;4918039;29;20217;-79
2023/01/11 03:41:11;;;;;;;1.47;1.00;;;;;;;4.93;95.80;95488.22;4941375;29;20274;-78
2023/01/11 03:43:39;;;;;;;2.87;1.10;;;;;;;4.90;96.79;95484.13;4933541;29;20194;-80
2023/01/11 03:46:08;;;;;;;2.93;0.77;;;;;;;4.97;96.72;95477.59;4918270;29;20675;-79
2023/01/11 03:48:51;;;;;;;1.50;1.00;;;;;;;5.04;97.12;95471.03;4940580;29;20618;-79
2023/01/11 03:51:28;;;;;;;1.00;0.83;;;;;;;5.07;96.64;95469.97;4934163;29;20225;-80
2023/01/11 03:54:00;;;;;;;3.77;1.20;;;;;;;4.97;97.49;95459.56;4919642;29;20189;-78
2023/01/11 03:56:34;;;;;;;2.60;1.10;;;;;;;5.02;97.29;95466.94;4914125;29;20202;-79
2023/01/11 03:59:00;;;;;;;1.00;0.90;;;;;;;5.07;96.76;95457.13;4925210;29;20221;-79
2023/01/11 04:01:25;;;;;;;2.00;1.00;;;;;;;5.12;96.19;95465.28;4937385;29;20206;-79
2023/01/11 04:03:51;;;;;;;2.90;0.90;;;;;;;5.18;95.83;95462.25;4937182;29;20256;-81
2023/01/11 04:06:17;;;;;;;1.20;0.80;;;;;;;5.19;96.57;95463.91;4929607;29;20193;-82
2023/01/11 04:08:42;;;;;;;2.37;1.00;;;;;;;5.19;96.27;95450.22;4930607;29;20241;-80
2023/01/11 04:11:07;;;;;;;1.77;0.80;;;;;;;5.16;95.60;95455.59;4943371;29;20190;-81
2023/01/11 04:13:33;;;;;;;1.37;0.60;;;;;;;5.18;96.32;95456.28;4923113;29;20558;-79
2023/01/11 04:15:58;;;;;;;1.33;0.90;;;;;;;5.19;96.27;95463.06;4925068;29;20229;-80
2023/01/11 04:18:23;;;;;;;2.30;0.87;;;;;;;5.12;96.08;95462.72;4941038;29;20210;-79
2023/01/11 04:20:49;;;;;;;2.67;1.33;;;;;;;5.10;95.58;95465.41;4921852;29;20194;-81
2023/01/11 04:23:14;;;;;;;1.30;0.90;;;;;;;5.06;97.09;95456.31;4935014;29;20604;-78
2023/01/11 04:25:39;;;;;;;1.87;0.97;;;;;;;5.05;97.43;95440.97;4924975;29;20216;-81
2023/01/11 04:28:05;;;;;;;1.97;1.23;;;;;;;5.04;97.38;95431.63;4922472;29;20262;-80
2023/01/11 04:30:30;;;;;;;1.17;0.90;;;;;;;5.00;97.95;95409.63;4921999;29;20193;-79
2023/01/11 04:32:57;;;;;;;1.40;0.90;;;;;;;5.00;97.88;95435.34;4942516;29;20198;-79
2023/01/11 04:35:23;;;;;;;1.17;0.70;;;;;;;4.97;98.97;95433.84;4941708;29;20281;-80
2023/01/11 04:37:54;;;;;;;0.70;0.70;;;;;;;5.05;98.76;95431.50;4934057;29;20281;-79
2023/01/11 04:40:20;;;;;;;1.37;0.90;;;;;;;5.03;99.59;95427.38;4943904;29;20245;-80
2023/01/11 04:42:45;;;;;;;0.83;0.80;;;;;;;5.04;99.98;95418.75;4943655;29;20212;-79
2023/01/11 04:45:11;;;;;;;0.70;0.70;;;;;;;5.03;100.00;95423.06;4917285;29;20189;-79
2023/01/11 04:47:36;;;;;;;1.13;0.70;;;;;;;5.10;100.00;95420.84;4919849;29;20665;-78
2023/01/11 04:50:01;;;;;;;1.33;0.80;;;;;;;5.22;100.00;95422.50;4925110;29;20221;-78
2023/01/11 04:52:27;;;;;;;1.13;0.70;;;;;;;5.27;100.00;95424.69;4917856;29;20205;-78
2023/01/11 04:54:52;;;;;;;2.70;1.13;;;;;;;5.19;100.00;95427.03;4919737;29;20567;-80
2023/01/11 04:57:18;;;;;;;1.47;1.00;;;;;;;5.34;100.00;95425.88;4944397;29;20198;-79
2023/01/11 04:59:46;;;;;;;3.67;1.23;;;;;;;5.42;100.00;95427.84;4928282;29;20213;-78
2023/01/11 05:02:13;;;;;;;1.33;1.00;;;;;;;5.40;100.00;95421.06;4943090;29;20195;-79
2023/01/11 05:04:38;;;;;;;1.90;1.10;;;;;;;5.34;100.00;95416.38;4924923;29;20200;-79
2023/01/11 05:07:03;;;;;;;2.20;1.70;;;;;;;5.21;100.00;95420.84;4917020;29;20289;-79
2023/01/11 05:09:29;;;;;;;2.63;1.80;;;;;;;5.34;100.00;95410.41;4916168;29;20224;-79
2023/01/11 05:11:54;;;;;;;3.73;1.87;;;;;;;5.21;100.00;95415.72;4917640;29;20718;-79
2023/01/11 05:14:19;;;;;;;1.67;1.57;;;;;;;5.38;100.00;95410.03;4939825;29;20250;-79
2023/01/11 05:16:45;;;;;;;1.53;1.40;;;;;;;5.38;100.00;95414.38;4927397;29;20702;-80
2023/01/11 05:19:11;;;;;;;1.57;1.10;;;;;;;5.30;100.00;95415.00;4940861;29;20713;-79
2023/01/11 05:21:38;;;;;;;1.37;1.03;;;;;;;5.40;100.00;95415.09;4920676;29;20276;-79
2023/01/11 05:24:06;;;;;;;1.50;1.00;;;;;;;5.40;100.00;95415.91;4942286;29;20194;-79
2023/01/11 05:26:34;;;;;;;2.50;1.30;;;;;;;5.42;100.00;95410.63;4923884;29;20198;-79
2023/01/11 05:29:00;;;;;;;1.40;1.20;;;;;;;5.37;100.00;95413.56;4915446;29;20881;-80
2023/01/11 05:31:26;;;;;;;1.03;0.93;;;;;;;5.38;100.00;95417.78;4930686;29;20257;-81
2023/01/11 05:33:54;;;;;;;3.70;1.40;;;;;;;5.47;100.00;95410.25;4943529;29;20201;-80
2023/01/11 05:36:21;;;;;;;1.23;1.10;;;;;;;5.40;100.00;95415.09;4936066;29;20620;-79
2023/01/11 05:38:48;;;;;;;2.37;1.20;;;;;;;5.47;100.00;95411.09;4920312;29;20229;-78
2023/01/11 05:41:14;;;;;;;2.03;1.30;;;;;;;5.49;100.00;95411.00;4939863;28;20251;-79
2023/01/11 05:46:24;;;;;;;1.33;1.00;;;;;;;5.52;100.00;95388.38;4931633;29;20229;-79
2023/01/11 05:48:49;;;;;;;1.17;0.80;;;;;;;5.55;100.00;95392.47;4924168;29;20224;-80
2023/01/11 05:51:15;;;;;;;0.80;0.70;;;;;;;5.54;100.00;95376.19;4943151;29;20198;-79
2023/01/11 05:53:40;;;;;;;2.57;0.80;;;;;;;5.63;100.00;95377.22;4922012;29;20666;-78
2023/01/11 05:56:06;;;;;;;1.43;0.90;;;;;;;5.64;100.00;95368.53;4942836;29;20268;-80
2023/01/11 05:58:31;;;;;;;0.83;0.70;;;;;;;5.59;100.00;95358.63;4924573;29;20302;-79
2023/01/11 06:00:56;;;;;;;0.90;0.80;;;;;;;5.60;100.00;95367.16;4918887;29;20230;-78
2023/01/11 06:03:23;;;;;;;1.37;1.00;;;;;;;5.61;100.00;95367.03;4936358;29;20198;-79
2023/01/11 06:05:48;;;;;;;3.07;1.40;;;;;;;5.63;100.00;95370.31;4924033;29;20194;-78
2023/01/11 06:08:14;;;;;;;2.87;1.30;;;;;;;5.65;100.00;95362.44;4922352;29;20221;-79
2023/01/11 06:10:40;;;;;;;1.43;1.30;;;;;;;5.60;100.00;95367.16;4907699;29;20682;-80
2023/01/11 06:15:49;;;;;;;1.37;1.20;;;;;;;5.71;100.00;95377.44;4922424;29;20188;-81
2023/01/11 06:18:14;;;;;;;2.27;2.00;;;;;;;5.81;100.00;95362.88;4923470;29;20612;-80
2023/01/11 06:20:40;;;;;;;2.00;1.47;;;;;;;5.88;100.00;95356.28;4918669;29;20199;-81
2023/01/11 06:23:05;;;;;;;1.70;1.60;;;;;;;5.88;100.00;95364.03;4939487;29;20190;-80
2023/01/11 06:25:31;;;;;;;1.90;1.10;;;;;;;5.93;100.00;95361.94;4941621;29;20200;-80
2023/01/11 06:27:58;;;;;;;1.40;0.90;;;;;;;5.90;100.00;95361.31;4913057;29;20205;-80
2023/01/11 06:30:24;;;;;;;1.60;1.13;;;;;;;5.87;100.00;95359.81;4919358;29;20190;-81
2023/01/11 06:32:51;;;;;;;2.30;1.20;;;;;;;5.85;100.00;95361.69;4921904;29;20669;-81
2023/01/11 06:35:17;;;;;;;2.37;0.87;;;;;;;5.89;100.00;95360.50;4916053;29;20952;-81
2023/01/11 06:37:42;;;;;;;1.90;0.80;;;;;;;5.89;100.00;95372.56;4938131;29;20204;-81
2023/01/11 06:40:08;;;;;;;0.87;0.70;;;;;;;5.90;100.00;95372.47;4939304;29;20229;-79
2023/01/11 06:42:33;;;;;;;0.97;0.70;;;;;;;5.89;100.00;95362.25;4917883;29;20284;-79
2023/01/11 06:44:58;;;;;;;0.87;0.77;;;;;;;5.88;100.00;95364.03;4916926;29;20201;-80
2023/01/11 06:47:24;;;;;;;1.47;0.90;;;;;;;6.02;100.00;95365.53;4923091;29;20197;-80
2023/01/11 06:49:49;;;;;;;1.03;0.80;;;;;;;5.99;100.00;95359.78;4926162;29;20293;-80
2023/01/11 06:52:14;;;;;;;1.50;0.70;;;;;;;6.13;100.00;95355.16;4924150;29;20624;-80
2023/01/11 06:54:40;;;;;;;0.60;0.60;;;;;;;6.21;100.00;95354.53;4931990;29;20201;-79
2023/01/11 06:57:05;;;;;;;1.17;0.80;;;;;;;6.22;100.00;95345.84;4930061;29;20208;-80
2023/01/11 06:59:30;;;;;;;0.80;0.70;;;;;;;6.24;100.00;95339.63;4927999;29;20658;-80
2023/01/11 07:01:57;;;;;;;1.23;0.70;;;;;;;6.31;100.00;95344.28;4930375;29;20705;-80
2023/01/11 07:04:22;;;;;;;0.60;0.60;;;;;;;6.29;100.00;95341.81;4940640;29;20199;-83
2023/01/11 07:06:48;;;;;;;0.80;0.60;;;;;;;6.34;100.00;95342.25;4915161;29;20190;-81
2023/01/11 07:09:13;;;;;;;0.70;0.50;;;;;;;6.35;100.00;95336.16;4945018;29;20217;-83
2023/01/11 07:11:38;;;;;;;1.17;0.60;;;;;;;6.29;100.00;95336.66;4917238;29;20280;-81
2023/01/11 07:14:04;;;;;;;0.70;0.70;;;;;;;6.30;100.00;95334.91;4941338;29;20190;-81
2023/01/11 07:16:30;;;;;;;2.53;0.80;;;;;;;6.24;100.00;95338.78;4908637;29;20190;-81
2023/01/11 07:18:55;;;;;;;0.60;0.60;;;;;;;6.32;100.00;95341.56;4917279;29;20714;-83
2023/01/11 07:21:20;;;;;;;1.37;0.97;;;;;;;6.31;100.00;95341.69;4920214;29;20197;-83
2023/01/11 07:23:47;;;;;;;0.80;0.80;;;;;;;6.36;100.00;95345.53;4923449;29;20197;-81
2023/01/11 07:26:15;;;;;;;1.50;0.80;;;;;;;6.35;100.00;95346.47;4935610;29;20784;-81
2023/01/11 07:28:41;;;;;;;1.70;0.97;;;;;;;6.41;100.00;95338.22;4918749;29;20218;-82
2023/01/11 07:31:06;;;;;;;3.47;0.90;;;;;;;6.41;100.00;95327.91;4926279;29;20196;-83
2023/01/11 07:33:31;;;;;;;1.20;0.80;;;;;;;6.34;100.00;95333.69;4925505;29;20198;-82
2023/01/11 07:35:59;;;;;;;1.80;1.17;;;;;;;6.37;100.00;95334.28;4914100;29;20185;-82
2023/01/11 07:38:24;;;;;;;1.47;1.10;;;;;;;6.42;100.00;95342.44;4917776;29;20209;-81
2023/01/11 07:40:50;;;;;;;2.27;0.80;;;;;;;6.43;100.00;95333.75;4932313;29;20190;-83
2023/01/11 07:43:17;;;;;;;1.67;0.90;;;;;;;6.40;100.00;95334.00;4922090;29;20193;-79
2023/01/11 07:45:46;;;;;;;1.93;1.20;;;;;;;6.48;100.00;95330.81;4933696;29;20210;-81
2023/01/11 07:48:13;;;;;;;2.20;1.27;;;;;;;6.50;100.00;95328.91;4944623;29;20213;-83
2023/01/11 07:50:39;;;;;;;1.63;0.80;;;;;;;6.56;100.00;95325.00;4926485;29;20233;-84
2023/01/11 07:53:08;;;;;;;4.33;1.00;;;;;;;6.62;100.00;95333.03;4928916;29;20196;-84
2023/01/11 07:55:33;;;;;;;2.63;1.07;;;;;;;6.60;100.00;95334.94;4923229;29;20195;-82
2023/01/11 07:57:59;;;;;;;1.83;1.33;;;;;;;6.65;100.00;95330.22;4923478;29;20195;-82
2023/01/11 08:00:24;;;;;;;1.20;0.90;;;;;;;6.67;100.00;95328.31;4922438;29;20214;-84
2023/01/11 08:02:51;;;;;;;1.10;0.97;;;;;;;6.78;100.00;95335.16;4920249;29;20225;-81
2023/01/11 08:05:18;;;;;;;3.10;1.03;;;;;;;6.76;100.00;95329.31;4924702;29;20190;-84
2023/01/11 08:07:43;;;;;;;1.07;0.83;;;;;;;6.70;100.00;95324.66;4946301;29;20564;-83
2023/01/11 08:10:09;;;;;;;1.60;0.97;;;;;;;6.93;100.00;95327.88;4948843;29;20186;-81
2023/01/11 08:15:19;;;;;;;0.90;0.87;;;;;;;7.07;100.00;95318.00;4948336;29;20184;-79
2023/01/11 08:17:44;;;;;;;1.30;0.60;;;;;;;7.22;99.92;95318.44;4940661;29;20285;-83
2023/01/11 08:20:09;;;;;;;1.27;0.63;;;;;;;7.28;99.66;95330.84;4925323;29;20207;-81
2023/01/11 08:22:34;;;;;;;0.73;0.60;;;;;;;7.29;98.89;95334.22;4926037;29;20581;-81
2023/01/11 08:25:00;;;;;;;1.90;0.70;;;;;;;7.35;98.58;95333.72;4945924;29;20539;-83
2023/01/11 08:27:25;;;;;;;0.97;0.90;;;;;;;7.37;97.64;95335.19;4944549;29;20221;-80
2023/01/11 08:29:50;;;;;;;1.63;0.80;;;;;;;7.18;98.54;95335.16;4925891;29;20217;-81
2023/01/11 08:32:16;;;;;;;2.00;0.87;;;;;;;7.18;98.30;95331.75;4925675;29;20607;-81
2023/01/11 08:34:41;;;;;;;4.40;1.00;;;;;;;7.15;99.12;95329.41;4936181;29;20245;-79
2023/01/11 08:37:06;;;;;;;1.37;0.90;;;;;;;7.17;99.01;95333.53;4925496;29;20186;-82
2023/01/11 08:39:32;;;;;;;1.00;0.90;;;;;;;7.18;99.18;95335.16;4948887;29;20256;-81
2023/01/11 08:41:58;;;;;;;1.37;0.60;;;;;;;7.36;98.14;95337.91;4943884;29;20640;-82
2023/01/11 08:44:23;;;;;;;1.20;0.70;;;;;;;7.47;96.92;95330.03;4921644;29;20189;-82
2023/01/11 08:46:48;;;;;;;0.70;0.70;;;;;;;7.50;97.17;95340.09;4929281;29;20655;-80
2023/01/11 08:49:13;;;;;;;2.10;0.80;;;;;;;7.56;97.06;95338.75;4926881;29;20205;-80
2023/01/11 08:51:39;;;;;;;1.53;0.63;;;;;;;7.59;97.13;95344.47;4921498;29;20208;-82
2023/01/11 08:54:08;;;;;;;2.43;0.87;;;;;;;7.51;96.95;95346.94;4916689;29;20614;-83
2023/01/11 08:56:33;;;;;;;0.90;0.90;;;;;;;7.58;97.31;95348.00;4942884;29;20675;-83
2023/01/11 08:58:59;;;;;;;1.07;0.80;;;;;;;7.58;97.41;95349.78;4927285;29;20212;-83
2023/01/11 09:01:25;;;;;;;3.57;2.73;;;;;;;7.48;97.90;95347.19;4918313;29;20197;-83
2023/01/11 09:03:50;;;;;;;1.73;1.60;;;;;;;7.58;97.49;95349.78;4938518;29;20205;-82
2023/01/11 09:06:17;;;;;;;1.33;1.00;;;;;;;7.59;96.84;95354.81;4924532;29;20647;-84
2023/01/11 09:08:43;;;;;;;1.43;1.20;;;;;;;7.54;97.07;95346.66;4925328;29;20214;-83
2023/01/11 09:11:52;;;;;;;1.13;1.03;;;;;;;7.56;97.40;95349.09;4920159;29;20555;-82
2023/01/11 09:13:53;;;;;;;1.30;1.20;;;;;;;7.62;96.97;95343.41;4941803;28;20194;-85
2023/01/11 09:16:18;;;;;;;1.43;1.00;;;;;;;7.52;97.27;95340.81;4940483;29;20201;-84
2023/01/11 09:18:44;;;;;;;5.47;1.47;;;;;;;7.57;97.57;95345.56;4919083;29;20210;-83
2023/01/11 09:21:09;;;;;;;2.40;1.50;;;;;;;7.58;97.84;95352.34;4929235;29;20668;-83
2023/01/11 09:23:35;;;;;;;1.10;0.87;;;;;;;7.60;97.84;95347.91;4941391;29;20198;-82
2023/01/11 09:26:01;;;;;;;1.10;0.80;;;;;;;7.73;97.61;95340.69;4921932;29;20241;-84
2023/01/11 09:28:26;;;;;;;0.93;0.83;;;;;;;7.65;98.25;95341.34;4904859;29;20221;-85
2023/01/11 09:30:52;;;;;;;1.00;0.90;;;;;;;7.68;98.00;95348.00;4941377;29;20194;-84
2023/01/11 09:33:17;;;;;;;0.60;0.60;;;;;;;7.71;98.62;95352.13;4933483;29;20236;-85
2023/01/11 09:35:45;;;;;;;0.97;0.80;;;;;;;7.77;98.68;95354.97;4921268;29;20254;-82
2023/01/11 09:38:10;;;;;;;2.93;1.20;;;;;;;7.88;97.60;95356.63;4922719;29;20256;-84
2023/01/11 09:40:45;;;;;;;17.40;8.43;;;;;;;7.87;98.21;95357.56;4923766;29;20683;-84
2023/01/11 09:43:16;;;;;;;2.57;1.00;;;;;;;7.95;98.44;95358.53;4937539;29;20173;-83
2023/01/11 09:45:45;;;;;;;1.40;1.00;;;;;;;8.00;97.51;95357.28;4916821;29;20205;-81
2023/01/11 09:48:27;;;;;;;0.90;0.80;;;;;;;8.10;97.50;95358.91;4925341;29;20210;-81
2023/01/11 09:50:54;;;;;;;0.77;0.73;;;;;;;7.94;97.97;95353.47;4927577;29;20253;-80
2023/01/11 09:53:34;;;;;;;1.30;1.00;;;;;;;8.04;97.50;95350.88;4932618;29;20710;-81
2023/01/11 09:56:03;;;;;;;1.27;1.03;;;;;;;8.08;97.02;95357.44;4916403;29;20182;-81
2023/01/11 09:58:53;;;;;;;1.30;1.20;;;;;;;8.07;97.51;95358.38;4944204;29;20210;-81
2023/01/11 10:01:40;;;;;;;1.70;0.90;;;;;;;8.10;97.45;95351.16;4927256;29;20590;-82
2023/01/11 10:04:31;;;;;;;1.67;0.90;;;;;;;8.02;98.25;95353.59;4940721;29;20193;-82
2023/01/11 10:07:15;;;;;;;1.37;1.03;;;;;;;8.07;98.72;95366.97;4941805;29;20603;-83
2023/01/11 10:09:59;;;;;;;2.97;1.10;;;;;;;8.10;98.32;95368.44;4918564;29;20353;-83
2023/01/11 10:13:03;;;;;;;1.30;1.10;;;;;;;8.16;98.68;95371.31;4930323;29;20189;-84
2023/01/11 10:15:39;;;;;;;1.07;0.80;;;;;;;8.15;99.38;95368.88;4923831;29;20216;-82
2023/01/11 10:18:23;;;;;;;1.00;0.90;;;;;;;8.16;99.41;95366.13;4943189;29;20214;-83
2023/01/11 10:20:52;;;;;;;1.77;1.30;;;;;;;8.11;100.00;95362.31;4927895;29;20316;-83
2023/01/11 10:23:27;;;;;;;1.33;1.23;;;;;;;8.25;100.00;95361.91;4938232;29;20182;-81
2023/01/11 10:26:00;;;;;;;1.93;1.00;;;;;;;8.32;99.38;95372.53;4924036;29;20562;-84
2023/01/11 10:28:41;;;;;;;1.83;1.70;;;;;;;8.15;100.00;95366.28;4922150;29;20698;-81
2023/01/11 10:31:29;;;;;;;1.67;1.40;;;;;;;8.21;100.00;95363.13;4945342;29;20659;-83
2023/01/11 10:42:09;;;;;;;1.40;1.00;;;;;;;8.37;100.00;95372.94;4939978;29;20590;-82
2023/01/11 10:44:52;;;;;;;0.97;0.90;;;;;;;8.35;100.00;95367.09;4932427;29;20302;-81
2023/01/11 10:47:21;;;;;;;0.80;0.80;;;;;;;8.36;100.00;95361.78;4929553;29;20189;-83
2023/01/11 10:50:09;;;;;;;1.73;1.00;;;;;;;8.47;100.00;95359.03;4940937;29;20229;-80
2023/01/11 10:52:42;;;;;;;2.43;1.57;;;;;;;8.46;100.00;95360.00;4926049;29;20208;-81
2023/01/11 10:55:13;;;;;;;1.30;0.60;;;;;;;8.55;100.00;95368.69;4936818;29;20895;-82
2023/01/11 10:57:47;;;;;;;1.07;0.50;;;;;;;8.58;100.00;95365.84;4930080;29;20217;-81
2023/01/11 11:00:34;;;;;;;1.50;0.80;;;;;;;8.83;100.00;95361.00;4928625;29;20249;-82
2023/01/11 11:03:09;;;;;;;0.30;0.30;;;;;;;8.79;100.00;95363.88;4933959;29;20217;-81
2023/01/11 11:05:37;;;;;;;0.30;0.30;;;;;;;8.80;100.00;95360.31;4926019;29;20198;-79
2023/01/11 11:08:32;;;;;;;0.47;0.40;;;;;;;8.87;100.00;95352.00;4940975;29;20590;-82
2023/01/11 11:11:11;;;;;;;0.63;0.50;;;;;;;8.83;100.00;95354.03;4919623;29;20212;-83
2023/01/11 11:13:57;;;;;;;0.43;0.43;;;;;;;9.06;100.00;95352.72;4912987;29;21067;-81
2023/01/11 11:16:22;;;;;;;0.40;0.40;;;;;;;8.97;100.00;95351.00;4938411;29;20205;-83
2023/01/11 11:18:48;;;;;;;0.47;0.47;;;;;;;8.91;100.00;95354.16;4918541;29;20301;-81
2023/01/11 11:21:23;;;;;;;0.83;0.60;;;;;;;9.14;100.00;95367.56;4920688;29;20186;-80
2023/01/11 11:23:53;;;;;;;1.70;1.60;;;;;;;9.16;99.93;95362.25;4920832;29;20194;-80
2023/01/11 11:26:20;;;;;;;0.40;0.40;;;;;;;8.95;100.00;95354.69;4915422;29;20197;-80
2023/01/11 11:29:03;;;;;;;3.53;0.70;;;;;;;9.07;100.00;95354.38;4942593;29;20218;-80
2023/01/11 11:31:29;;;;;;;1.53;1.33;;;;;;;9.01;100.00;95359.28;4913909;29;20274;-80
2023/01/11 11:33:55;;;;;;;0.60;0.60;;;;;;;9.06;100.00;95352.72;4934272;29;20567;-78
2023/01/11 11:36:21;;;;;;;0.60;0.60;;;;;;;9.15;99.75;95356.25;4919410;29;20198;-80
2023/01/11 11:39:09;;;;;;;0.40;0.40;;;;;;;9.14;100.00;95349.44;4943410;29;20210;-83
2023/01/11 11:41:46;;;;;;;0.60;0.50;;;;;;;9.15;100.00;95350.25;4919092;29;20198;-82
2023/01/11 11:44:20;;;;;;;0.40;0.40;;;;;;;9.01;100.00;95351.53;4940535;29;20185;-81
2023/01/11 11:46:59;;;;;;;0.60;0.57;;;;;;;9.11;100.00;95352.31;4944509;29;20193;-79
2023/01/11 11:49:26;;;;;;;0.50;0.50;;;;;;;9.17;100.00;95348.31;4932788;29;20237;-83
2023/01/11 11:51:52;;;;;;;0.57;0.50;;;;;;;9.16;100.00;95352.69;4937954;29;20209;-82
2023/01/11 11:54:21;;;;;;;0.57;0.40;;;;;;;9.01;100.00;95354.09;4927748;29;20654;-82
2023/01/11 11:56:46;;;;;;;0.40;0.40;;;;;;;9.10;100.00;95345.50;4946575;29;20189;-82
2023/01/11 11:59:15;;;;;;;0.40;0.40;;;;;;;8.89;100.00;95355.25;4937568;29;20206;-83
2023/01/11 12:01:45;;;;;;;0.60;0.60;;;;;;;8.89;100.00;95350.06;4923476;29;20193;-83
2023/01/11 12:04:20;;;;;;;0.80;0.77;;;;;;;8.93;100.00;95346.25;4927973;29;20187;-82
2023/01/11 12:06:51;;;;;;;1.43;1.10;;;;;;;8.80;100.00;95349.97;4927486;29;20475;-83
2023/01/11 12:09:29;;;;;;;1.30;0.90;;;;;;;8.90;100.00;95346.53;4935129;29;20207;-83
2023/01/11 12:11:54;;;;;;;1.00;0.90;;;;;;;8.79;100.00;95348.34;4927400;29;20182;-81
2023/01/11 12:14:24;;;;;;;0.70;0.70;;;;;;;8.93;100.00;95351.44;4931500;29;20187;-81
2023/01/11 12:16:50;;;;;;;0.70;0.63;;;;;;;8.79;100.00;95347.53;4939746;29;20200;-82
2023/01/11 12:19:35;;;;;;;1.90;1.23;;;;;;;8.80;100.00;95347.38;4926874;29;20281;-83
2023/01/11 12:22:21;;;;;;;1.67;1.57;;;;;;;9.00;100.00;95344.72;4946725;29;20269;-82
2023/01/11 12:25:01;;;;;;;2.10;1.80;;;;;;;8.87;100.00;95339.06;4937696;29;20191;-82